Главная страница
METAR-TAF:

METAR-TAF

Аэропорты :

Витязево

Анапа, Россия

широта: 44-54N, долгота: 037-19E, высота над уровнем моря: 53 м

Текущие метеонаблюдения

Эта сводка был подготовлена 11 минут назад, в 03:00 UTC
Ветер 6 Узел от восточно-северо-восточный, изменяющийся между северо-восточный и восточно-юго-восточный
Температура 22°C
Влажность 69%
Давление 1010 hPa
Видимость 10 км и более
Нет облачности ниже 1500 м, и нет кучево-дождевой облачности

METAR: URKA 170300Z 07003MPS 050V110 CAVOK 22/16 Q1010 R04/010070 RMK QFE753/1005

Время: 06:11 (03:11 UTC)

Прогноз

Эта сводка был подготовлена 1 час и 16 минут назад, в 01:55 UTC
Прогноз действительный с 17-го 03 UTC до 18-го 03 UTC
Ветер 14 Узел от северо-восточный с порывами до 23 Узел
Видимость 10 км и более
Отдельные облака на высоте 3000 фута
временами
С 17-го 06 UTC до 17-го 18 UTC
Ветер 23 Узел от восточно-северо-восточный с порывами до 33 Узел

TAF: URKA 170155Z 1703/1803 05007G12MPS 9999 SCT030 TEMPO 1706/1718 07012G17MPS

Метеонаблюдения и прогнозы для более 4000 аэропортов (сводки METAR и TAF).

Имеющиеся станции представлены на карте желтыми и красными точками.

Чтобы увидеть название станции, наведите на нее мышь.

Затем щелкните, чтобы увидеть метеонаблюдения и метеопрогнозы.

Управление картой: чтобы увеличить масштаб, щелкните зеленые кнопки с черным крестиком; чтобы уменьшить масштаб, щелкните зеленую кнопку с тире; для просмотра соседних карт щелкайте зеленые стрелки.


METAR-TAF: